createdAt,value
2022-12-06T00:00:40.108Z,0
2022-12-06T00:01:40.243Z,0
2022-12-06T00:02:40.385Z,0
2022-12-06T00:03:40.639Z,0
2022-12-06T00:04:43.136Z,0
2022-12-06T00:05:46.319Z,0
2022-12-06T00:06:40.092Z,0
2022-12-06T00:07:40.428Z,0
2022-12-06T00:08:40.146Z,0
2022-12-06T00:09:40.121Z,0
2022-12-06T00:10:42.954Z,0
2022-12-06T00:11:40.113Z,0
2022-12-06T00:12:40.103Z,0
2022-12-06T00:13:40.146Z,0
2022-12-06T00:14:40.136Z,0
2022-12-06T00:15:43.196Z,0
2022-12-06T00:16:40.690Z,0
2022-12-06T00:17:45.593Z,0
2022-12-06T00:18:42.898Z,0
2022-12-06T00:19:39.625Z,0
2022-12-06T00:20:40.141Z,0
2022-12-06T00:21:40.133Z,0
2022-12-06T00:22:40.157Z,0
2022-12-06T00:23:40.144Z,0
2022-12-06T00:24:40.149Z,0
2022-12-06T00:25:40.227Z,0
2022-12-06T00:26:42.907Z,0
2022-12-06T00:27:40.125Z,0
2022-12-06T00:28:40.133Z,0
2022-12-06T00:29:40.189Z,0
2022-12-06T00:30:40.209Z,0
2022-12-06T00:31:40.651Z,0
2022-12-06T00:32:42.909Z,0
2022-12-06T00:33:40.168Z,0
2022-12-06T00:34:40.206Z,0
2022-12-06T00:35:40.166Z,0
2022-12-06T00:36:40.162Z,0
2022-12-06T00:37:42.911Z,0
2022-12-06T00:38:40.195Z,0
2022-12-06T00:39:40.176Z,0
2022-12-06T00:40:40.208Z,0
2022-12-06T00:41:40.161Z,0
2022-12-06T00:42:40.163Z,0
2022-12-06T00:43:46.250Z,0
2022-12-06T00:44:40.168Z,0
2022-12-06T00:45:40.530Z,0
2022-12-06T00:46:40.209Z,0
2022-12-06T00:47:40.196Z,0
2022-12-06T00:48:40.423Z,0
2022-12-06T00:49:40.158Z,0
2022-12-06T00:50:40.228Z,0
2022-12-06T00:51:40.214Z,0
2022-12-06T00:52:40.191Z,0
2022-12-06T00:53:40.953Z,0
2022-12-06T00:54:40.194Z,0
2022-12-06T00:55:40.216Z,0
2022-12-06T00:56:40.224Z,0
2022-12-06T00:57:40.221Z,0
2022-12-06T00:58:40.219Z,0
2022-12-06T00:59:43.311Z,0
2022-12-06T01:00:40.217Z,0
2022-12-06T01:01:41.619Z,0
2022-12-06T01:02:40.200Z,0
2022-12-06T01:03:42.637Z,0
2022-12-06T01:04:41.222Z,0
2022-12-06T01:05:40.436Z,0
2022-12-06T01:06:40.224Z,0
2022-12-06T01:07:40.483Z,0
2022-12-06T01:08:40.217Z,0
2022-12-06T01:09:40.191Z,0
2022-12-06T01:10:42.973Z,0
2022-12-06T01:11:40.244Z,0
2022-12-06T01:12:40.263Z,0
2022-12-06T01:13:40.217Z,0
2022-12-06T01:14:40.205Z,0
2022-12-06T01:15:41.026Z,0
2022-12-06T01:16:40.619Z,0
2022-12-06T01:17:40.256Z,0
2022-12-06T01:18:40.268Z,0
2022-12-06T01:19:40.255Z,0
2022-12-06T01:20:41.254Z,0
2022-12-06T01:21:40.212Z,0
2022-12-06T01:22:40.256Z,0
2022-12-06T01:23:40.226Z,0
2022-12-06T01:24:40.216Z,0
2022-12-06T01:25:43.262Z,0
2022-12-06T01:26:39.924Z,0
2022-12-06T01:27:40.239Z,0
2022-12-06T01:28:40.235Z,0
2022-12-06T01:29:40.240Z,0
2022-12-06T01:30:40.462Z,0
2022-12-06T01:31:45.060Z,0
2022-12-06T01:32:40.254Z,0
2022-12-06T01:33:40.272Z,0
2022-12-06T01:34:40.268Z,0
2022-12-06T01:35:40.315Z,0
2022-12-06T01:36:40.241Z,0
2022-12-06T01:37:40.270Z,0
2022-12-06T01:38:40.265Z,0
2022-12-06T01:39:40.259Z,0
2022-12-06T01:40:40.362Z,0
2022-12-06T01:41:40.257Z,0
2022-12-06T01:42:43.298Z,0
2022-12-06T01:43:40.391Z,0
2022-12-06T01:44:40.306Z,0
2022-12-06T01:45:40.444Z,0
2022-12-06T01:46:40.648Z,0
2022-12-06T01:47:40.314Z,0
2022-12-06T01:48:40.277Z,0
2022-12-06T01:49:40.279Z,0
2022-12-06T01:50:40.319Z,0
2022-12-06T01:51:40.275Z,0
2022-12-06T01:52:40.289Z,0
2022-12-06T01:53:43.358Z,0
2022-12-06T01:54:40.268Z,0
2022-12-06T01:55:40.319Z,0
2022-12-06T01:56:41.327Z,0
2022-12-06T01:57:40.266Z,0
2022-12-06T01:58:43.362Z,0
2022-12-06T01:59:40.285Z,0
2022-12-06T02:00:40.373Z,0
2022-12-06T02:01:40.768Z,0
2022-12-06T02:02:40.891Z,0
2022-12-06T02:03:40.305Z,0
2022-12-06T02:04:43.028Z,0
2022-12-06T02:05:47.298Z,0
2022-12-06T02:06:40.304Z,0
2022-12-06T02:07:40.547Z,0
2022-12-06T02:08:40.367Z,0
2022-12-06T02:09:45.189Z,0
2022-12-06T02:10:40.293Z,0
2022-12-06T02:11:42.392Z,0
2022-12-06T02:12:40.348Z,0
2022-12-06T02:13:40.308Z,0
2022-12-06T02:14:40.342Z,0
2022-12-06T02:15:43.669Z,0
2022-12-06T02:16:40.753Z,0
2022-12-06T02:17:40.305Z,0
2022-12-06T02:19:40.311Z,0
2022-12-06T02:20:43.381Z,0
2022-12-06T02:21:40.338Z,0
2022-12-06T02:22:40.327Z,0
2022-12-06T02:23:40.344Z,0
2022-12-06T02:24:40.335Z,0
2022-12-06T02:25:47.674Z,0
2022-12-06T02:26:43.106Z,0
2022-12-06T02:27:40.336Z,0
2022-12-06T02:28:40.320Z,0
2022-12-06T02:29:40.331Z,0
2022-12-06T02:30:40.933Z,0
2022-12-06T02:31:44.109Z,0
2022-12-06T02:32:40.359Z,0
2022-12-06T02:33:40.350Z,0
2022-12-06T02:34:40.335Z,0
2022-12-06T02:35:40.451Z,0
2022-12-06T02:36:40.408Z,0
2022-12-06T02:37:43.151Z,0
2022-12-06T02:38:40.333Z,0
2022-12-06T02:39:40.354Z,0
2022-12-06T02:40:40.352Z,0
2022-12-06T02:41:40.417Z,0
2022-12-06T02:42:43.391Z,0
2022-12-06T02:43:40.339Z,0
2022-12-06T02:44:40.351Z,0
2022-12-06T02:45:40.352Z,0
2022-12-06T02:46:40.736Z,0
2022-12-06T02:47:40.396Z,0
2022-12-06T02:48:43.520Z,0
2022-12-06T02:49:40.399Z,0
2022-12-06T02:50:40.384Z,0
2022-12-06T02:51:40.405Z,0
2022-12-06T02:52:40.406Z,0
2022-12-06T02:53:43.433Z,0
2022-12-06T02:54:40.364Z,0
2022-12-06T02:55:40.505Z,0
2022-12-06T02:56:40.415Z,0
2022-12-06T02:57:40.395Z,0
2022-12-06T02:58:40.402Z,0
2022-12-06T02:59:43.509Z,0
2022-12-06T03:00:40.369Z,0
2022-12-06T03:01:40.833Z,0
2022-12-06T03:02:40.733Z,0
2022-12-06T03:03:40.409Z,0
2022-12-06T03:04:43.503Z,0
2022-12-06T03:05:40.382Z,0
2022-12-06T03:06:41.433Z,0
2022-12-06T03:07:40.740Z,0
2022-12-06T03:08:40.401Z,0
2022-12-06T03:09:40.401Z,0
2022-12-06T03:10:40.398Z,0
2022-12-06T03:11:40.407Z,0
2022-12-06T03:12:40.384Z,0
2022-12-06T03:13:40.421Z,0
2022-12-06T03:14:40.376Z,0
2022-12-06T03:15:43.706Z,0
2022-12-06T03:16:40.409Z,0
2022-12-06T03:17:40.404Z,0
2022-12-06T03:18:43.448Z,0
2022-12-06T03:19:40.424Z,0
2022-12-06T03:20:40.418Z,0
2022-12-06T03:21:40.447Z,0
2022-12-06T03:22:46.552Z,0
2022-12-06T03:23:40.418Z,0
2022-12-06T03:24:40.444Z,0
2022-12-06T03:25:40.410Z,0
2022-12-06T03:26:43.710Z,0
2022-12-06T03:27:40.431Z,0
2022-12-06T03:28:40.440Z,0
2022-12-06T03:29:40.449Z,0
2022-12-06T03:30:40.491Z,0
2022-12-06T03:31:40.737Z,0
2022-12-06T03:32:40.456Z,0
2022-12-06T03:33:40.421Z,0
2022-12-06T03:34:40.495Z,0
2022-12-06T03:35:40.436Z,0
2022-12-06T03:36:40.431Z,0
2022-12-06T03:37:43.519Z,0
2022-12-06T03:38:40.466Z,0
2022-12-06T03:39:40.450Z,0
2022-12-06T03:40:40.507Z,0
2022-12-06T03:41:40.440Z,0
2022-12-06T03:42:41.110Z,0
2022-12-06T03:43:40.464Z,0
2022-12-06T03:44:40.450Z,0
2022-12-06T03:45:40.822Z,0
2022-12-06T03:46:40.706Z,0
2022-12-06T03:47:40.473Z,0
2022-12-06T03:48:40.462Z,0
2022-12-06T03:49:40.494Z,0
2022-12-06T03:50:40.517Z,0
2022-12-06T03:51:40.478Z,0
2022-12-06T03:52:40.504Z,0
2022-12-06T03:53:40.475Z,0
2022-12-06T03:54:40.451Z,0
2022-12-06T03:55:40.464Z,0
2022-12-06T03:56:40.500Z,0
2022-12-06T03:57:40.488Z,0
2022-12-06T03:58:40.457Z,0
2022-12-06T03:59:40.455Z,0
2022-12-06T04:00:40.466Z,0
2022-12-06T04:01:40.752Z,0
2022-12-06T04:02:40.533Z,0
2022-12-06T04:03:40.813Z,0
2022-12-06T04:04:41.593Z,0
2022-12-06T04:05:43.465Z,0
2022-12-06T04:06:40.520Z,0
2022-12-06T04:07:41.114Z,0
2022-12-06T04:08:40.515Z,0
2022-12-06T04:09:43.671Z,0
2022-12-06T04:10:40.499Z,0
2022-12-06T04:11:40.513Z,0
2022-12-06T04:12:40.551Z,0
2022-12-06T04:13:40.489Z,0
2022-12-06T04:14:40.525Z,0
2022-12-06T04:15:40.712Z,0
2022-12-06T04:16:40.628Z,0
2022-12-06T04:17:40.533Z,0
2022-12-06T04:18:40.502Z,0
2022-12-06T04:19:40.519Z,0
2022-12-06T04:20:43.684Z,0
2022-12-06T04:21:40.509Z,0
2022-12-06T04:22:40.599Z,0
2022-12-06T04:23:40.507Z,0
2022-12-06T04:24:40.491Z,0
2022-12-06T04:25:44.650Z,0
2022-12-06T04:26:40.514Z,0
2022-12-06T04:27:40.532Z,0
2022-12-06T04:28:40.545Z,0
2022-12-06T04:29:40.528Z,0
2022-12-06T04:30:40.534Z,0
2022-12-06T04:31:43.527Z,0
2022-12-06T04:32:40.556Z,0
2022-12-06T04:33:40.558Z,0
2022-12-06T04:34:40.557Z,0
2022-12-06T04:35:40.524Z,0
2022-12-06T04:36:43.608Z,0
2022-12-06T04:37:40.560Z,0
2022-12-06T04:38:40.578Z,0
2022-12-06T04:39:40.537Z,0
2022-12-06T04:40:40.511Z,0
2022-12-06T04:41:40.531Z,0
2022-12-06T04:42:43.600Z,0
2022-12-06T04:43:40.550Z,0
2022-12-06T04:44:40.558Z,0
2022-12-06T04:45:40.545Z,0
2022-12-06T04:46:40.935Z,0
2022-12-06T04:47:43.566Z,0
2022-12-06T04:48:40.564Z,0
2022-12-06T04:49:40.568Z,0
2022-12-06T04:50:40.570Z,0
2022-12-06T04:51:40.585Z,0
2022-12-06T04:52:43.089Z,0
2022-12-06T04:53:43.733Z,0
2022-12-06T04:54:40.618Z,0
2022-12-06T04:55:40.566Z,0
2022-12-06T04:56:40.571Z,0
2022-12-06T04:57:40.588Z,0
2022-12-06T04:58:43.698Z,0
2022-12-06T04:59:40.630Z,0
2022-12-06T05:00:43.907Z,0
2022-12-06T05:01:40.560Z,0
2022-12-06T05:02:40.605Z,0
2022-12-06T05:03:47.128Z,0
2022-12-06T05:04:43.447Z,0
2022-12-06T05:05:40.592Z,0
2022-12-06T05:06:40.579Z,0
2022-12-06T05:07:40.900Z,0
2022-12-06T05:08:40.593Z,0
2022-12-06T05:09:43.750Z,0
2022-12-06T05:10:40.569Z,0
2022-12-06T05:11:40.578Z,0
2022-12-06T05:12:40.593Z,0
2022-12-06T05:13:40.634Z,0
2022-12-06T05:14:40.590Z,0
2022-12-06T05:15:43.651Z,0
2022-12-06T05:16:41.102Z,0
2022-12-06T05:17:40.607Z,0
2022-12-06T05:18:40.604Z,0
2022-12-06T05:19:40.593Z,0
2022-12-06T05:20:43.672Z,0
2022-12-06T05:21:40.606Z,0
2022-12-06T05:22:40.631Z,0
2022-12-06T05:23:40.593Z,0
2022-12-06T05:24:40.594Z,0
2022-12-06T05:25:40.651Z,0
2022-12-06T05:26:40.592Z,0
2022-12-06T05:27:43.172Z,0
2022-12-06T05:28:40.607Z,0
2022-12-06T05:29:40.613Z,0
2022-12-06T05:30:40.621Z,0
2022-12-06T05:31:43.916Z,0
2022-12-06T05:32:40.666Z,0
2022-12-06T05:33:40.605Z,0
2022-12-06T05:34:40.626Z,0
2022-12-06T05:35:40.620Z,0
2022-12-06T05:36:40.652Z,0
2022-12-06T05:37:40.634Z,0
2022-12-06T05:38:40.617Z,0
2022-12-06T05:39:40.621Z,0
2022-12-06T05:40:42.532Z,0
2022-12-06T05:41:40.681Z,0
2022-12-06T05:42:44.539Z,0
2022-12-06T05:43:40.642Z,0
2022-12-06T05:44:40.647Z,0
2022-12-06T05:45:41.000Z,0
2022-12-06T05:46:40.648Z,0
2022-12-06T05:47:40.647Z,0
2022-12-06T05:48:40.772Z,0
2022-12-06T05:49:40.643Z,0
2022-12-06T05:50:40.752Z,0
2022-12-06T05:51:40.714Z,0
2022-12-06T05:52:40.679Z,0
2022-12-06T05:53:43.684Z,0
2022-12-06T05:54:40.654Z,0
2022-12-06T05:55:40.651Z,0
2022-12-06T05:56:40.689Z,0
2022-12-06T05:57:47.430Z,0
2022-12-06T05:58:40.656Z,0
2022-12-06T05:59:40.682Z,0
2022-12-06T06:00:40.706Z,0
2022-12-06T06:01:40.865Z,0
2022-12-06T06:02:41.156Z,0
2022-12-06T06:03:47.867Z,0
2022-12-06T06:04:43.457Z,0
2022-12-06T06:05:40.691Z,0
2022-12-06T06:06:40.685Z,0
2022-12-06T06:07:41.006Z,0
2022-12-06T06:08:40.729Z,0
2022-12-06T06:09:43.454Z,0
2022-12-06T06:10:40.657Z,0
2022-12-06T06:11:40.700Z,0
2022-12-06T06:12:40.886Z,0
2022-12-06T06:13:40.745Z,0
2022-12-06T06:14:40.948Z,0
2022-12-06T06:15:40.680Z,0
2022-12-06T06:16:41.045Z,0
2022-12-06T06:17:40.679Z,0
2022-12-06T06:18:40.730Z,0
2022-12-06T06:19:40.686Z,0
2022-12-06T06:20:40.720Z,0
2022-12-06T06:21:40.766Z,0
2022-12-06T06:22:40.690Z,0
2022-12-06T06:23:40.736Z,0
2022-12-06T06:24:40.723Z,0
2022-12-06T06:25:40.699Z,0
2022-12-06T06:26:40.697Z,0
2022-12-06T06:27:40.726Z,0
2022-12-06T06:28:40.723Z,0
2022-12-06T06:29:59.578Z,0
2022-12-06T06:30:40.715Z,0
2022-12-06T06:31:40.910Z,0
2022-12-06T06:32:40.709Z,0
2022-12-06T06:33:40.737Z,0
2022-12-06T06:34:40.748Z,0
2022-12-06T06:35:40.724Z,0
2022-12-06T06:36:48.393Z,0
2022-12-06T06:37:40.703Z,0
2022-12-06T06:38:40.767Z,0
2022-12-06T06:39:40.735Z,0
2022-12-06T06:40:40.907Z,0
2022-12-06T06:41:40.714Z,0
2022-12-06T06:42:40.728Z,0
2022-12-06T06:43:40.772Z,0
2022-12-06T06:44:40.723Z,4
2022-12-06T06:45:41.028Z,4
2022-12-06T06:46:40.941Z,4
2022-12-06T06:47:43.517Z,0
2022-12-06T06:48:40.746Z,0
2022-12-06T06:49:40.721Z,0
2022-12-06T06:50:40.751Z,4
2022-12-06T06:51:40.745Z,0
2022-12-06T06:52:43.758Z,0
2022-12-06T06:53:40.804Z,4
2022-12-06T06:54:40.781Z,0
2022-12-06T06:55:40.733Z,4
2022-12-06T06:56:40.774Z,4
2022-12-06T06:57:40.734Z,4
2022-12-06T06:58:43.904Z,4
2022-12-06T06:59:40.734Z,4
2022-12-06T07:00:40.742Z,4
2022-12-06T07:01:41.232Z,0
2022-12-06T07:02:42.170Z,4
2022-12-06T07:03:42.235Z,4
2022-12-06T07:04:40.743Z,4
2022-12-06T07:05:40.761Z,4
2022-12-06T07:06:40.934Z,4
2022-12-06T07:07:41.000Z,4
2022-12-06T07:08:40.788Z,8
2022-12-06T07:09:43.784Z,4
2022-12-06T07:10:40.801Z,4
2022-12-06T07:11:40.604Z,4
2022-12-06T07:12:43.511Z,4
2022-12-06T07:13:40.787Z,8
2022-12-06T07:14:43.872Z,4
2022-12-06T07:15:40.810Z,4
2022-12-06T07:16:41.143Z,4
2022-12-06T07:17:40.895Z,8
2022-12-06T07:18:40.829Z,8
2022-12-06T07:19:40.806Z,8
2022-12-06T07:20:43.869Z,4
2022-12-06T07:21:40.808Z,8
2022-12-06T07:22:40.456Z,8
2022-12-06T07:23:40.828Z,8
2022-12-06T07:24:54.957Z,8
2022-12-06T07:25:41.016Z,8
2022-12-06T07:26:40.659Z,12
2022-12-06T07:27:40.636Z,8
2022-12-06T07:28:40.867Z,8
2022-12-06T07:29:40.794Z,8
2022-12-06T07:30:41.222Z,8
2022-12-06T07:31:43.899Z,8
2022-12-06T07:32:40.779Z,8
2022-12-06T07:33:40.901Z,12
2022-12-06T07:34:40.781Z,12
2022-12-06T07:36:18.387Z,12
2022-12-06T07:36:43.826Z,12
2022-12-06T07:37:40.799Z,12
2022-12-06T07:38:40.909Z,16
2022-12-06T07:39:40.808Z,12
2022-12-06T07:41:10.825Z,12
2022-12-06T07:41:40.878Z,16
2022-12-06T07:42:43.871Z,12
2022-12-06T07:43:41.856Z,16
2022-12-06T07:44:40.834Z,12
2022-12-06T07:45:40.910Z,12
2022-12-06T07:46:40.972Z,12
2022-12-06T07:47:43.683Z,12
2022-12-06T07:48:40.859Z,12
2022-12-06T07:49:40.883Z,12
2022-12-06T07:50:40.838Z,8
2022-12-06T07:51:40.851Z,12
2022-12-06T07:52:40.857Z,12
2022-12-06T07:53:43.903Z,16
2022-12-06T07:54:40.835Z,16
2022-12-06T07:55:40.827Z,16
2022-12-06T07:56:40.841Z,16
2022-12-06T07:57:48.452Z,20
2022-12-06T07:58:43.961Z,16
2022-12-06T07:59:40.861Z,20
2022-12-06T08:00:40.875Z,20
2022-12-06T08:01:41.217Z,20
2022-12-06T08:02:40.894Z,24
2022-12-06T08:03:40.885Z,20
2022-12-06T08:04:43.919Z,20
2022-12-06T08:05:40.896Z,20
2022-12-06T08:06:40.869Z,16
2022-12-06T08:07:41.161Z,20
2022-12-06T08:08:41.006Z,24
2022-12-06T08:09:43.599Z,20
2022-12-06T08:10:40.837Z,20
2022-12-06T08:11:43.858Z,20
2022-12-06T08:12:40.877Z,20
2022-12-06T08:13:40.890Z,20
2022-12-06T08:14:40.910Z,16
2022-12-06T08:15:41.205Z,20
2022-12-06T08:16:40.922Z,16
2022-12-06T08:17:40.877Z,16
2022-12-06T08:18:41.916Z,16
2022-12-06T08:19:40.885Z,20
2022-12-06T08:20:44.784Z,16
2022-12-06T08:21:40.904Z,20
2022-12-06T08:22:40.856Z,20
2022-12-06T08:23:41.730Z,20
2022-12-06T08:24:40.875Z,20
2022-12-06T08:25:40.878Z,20
2022-12-06T08:26:40.888Z,20
2022-12-06T08:27:40.883Z,20
2022-12-06T08:28:40.909Z,20
2022-12-06T08:29:40.733Z,20
2022-12-06T08:30:44.255Z,20
2022-12-06T08:31:44.381Z,24
2022-12-06T08:32:40.923Z,20
2022-12-06T08:33:40.888Z,24
2022-12-06T08:34:40.912Z,24
2022-12-06T08:35:40.955Z,24
2022-12-06T08:36:44.030Z,24
2022-12-06T08:37:40.908Z,20
2022-12-06T08:38:40.927Z,20
2022-12-06T08:39:40.903Z,20
2022-12-06T08:40:40.908Z,20
2022-12-06T08:41:40.920Z,20
2022-12-06T08:42:40.913Z,20
2022-12-06T08:43:40.933Z,20
2022-12-06T08:44:40.943Z,20
2022-12-06T08:45:43.885Z,20
2022-12-06T08:46:41.163Z,20
2022-12-06T08:47:40.936Z,20
2022-12-06T08:48:48.156Z,24
2022-12-06T08:49:40.892Z,24
2022-12-06T08:50:40.906Z,24
2022-12-06T08:51:40.898Z,20
2022-12-06T08:52:40.980Z,24
2022-12-06T08:53:40.925Z,20
2022-12-06T08:54:40.954Z,24
2022-12-06T08:55:40.953Z,24
2022-12-06T08:56:40.972Z,24
2022-12-06T08:57:40.974Z,28
2022-12-06T08:58:40.926Z,24
2022-12-06T08:59:43.929Z,28
2022-12-06T09:00:40.951Z,28
2022-12-06T09:01:45.254Z,28
2022-12-06T09:02:40.918Z,28
2022-12-06T09:03:43.936Z,28
2022-12-06T09:04:41.303Z,28
2022-12-06T09:05:40.947Z,28
2022-12-06T09:06:40.918Z,28
2022-12-06T09:07:41.380Z,28
2022-12-06T09:08:40.965Z,28
2022-12-06T09:09:40.950Z,32
2022-12-06T09:10:40.965Z,32
2022-12-06T09:11:40.963Z,36
2022-12-06T09:12:40.968Z,40
2022-12-06T09:13:40.997Z,40
2022-12-06T09:14:44.124Z,44
2022-12-06T09:15:41.273Z,44
2022-12-06T09:16:41.145Z,44
2022-12-06T09:17:40.959Z,44
2022-12-06T09:18:40.983Z,40
2022-12-06T09:19:42.327Z,44
2022-12-06T09:20:40.948Z,44
2022-12-06T09:21:40.978Z,40
2022-12-06T09:22:40.963Z,40
2022-12-06T09:23:40.982Z,40
2022-12-06T09:24:41.032Z,44
2022-12-06T09:25:43.763Z,44
2022-12-06T09:26:40.974Z,44
2022-12-06T09:27:40.981Z,44
2022-12-06T09:28:41.004Z,44
2022-12-06T09:29:47.264Z,40
2022-12-06T09:30:43.779Z,40
2022-12-06T09:31:41.339Z,36
2022-12-06T09:32:40.998Z,36
2022-12-06T09:33:41.008Z,36
2022-12-06T09:34:40.977Z,36
2022-12-06T09:35:41.036Z,36
2022-12-06T09:36:44.059Z,32
2022-12-06T09:37:41.009Z,32
2022-12-06T09:38:41.004Z,32
2022-12-06T09:39:40.987Z,32
2022-12-06T09:40:47.814Z,32
2022-12-06T09:41:43.985Z,28
2022-12-06T09:42:41.007Z,32
2022-12-06T09:43:41.006Z,32
2022-12-06T09:44:41.019Z,32
2022-12-06T09:45:41.014Z,32
2022-12-06T09:46:41.446Z,32
2022-12-06T09:47:45.149Z,36
2022-12-06T09:48:48.814Z,32
2022-12-06T09:49:41.009Z,32
2022-12-06T09:50:41.012Z,32
2022-12-06T09:51:41.091Z,32
2022-12-06T09:52:44.160Z,28
2022-12-06T09:53:41.074Z,28
2022-12-06T09:54:43.089Z,28
2022-12-06T09:55:41.068Z,28
2022-12-06T09:56:41.079Z,28
2022-12-06T09:57:41.013Z,28
2022-12-06T09:58:43.904Z,28
2022-12-06T09:59:41.006Z,24
2022-12-06T10:00:41.033Z,28
2022-12-06T10:01:41.269Z,28
2022-12-06T10:02:41.361Z,28
2022-12-06T10:03:44.045Z,28
2022-12-06T10:04:41.026Z,28
2022-12-06T10:05:41.053Z,28
2022-12-06T10:06:41.015Z,28
2022-12-06T10:07:41.593Z,28
2022-12-06T10:08:41.795Z,32
2022-12-06T10:09:43.793Z,28
2022-12-06T10:10:41.038Z,32
2022-12-06T10:11:41.080Z,32
2022-12-06T10:12:41.937Z,32
2022-12-06T10:13:41.032Z,36
2022-12-06T10:14:46.860Z,40
2022-12-06T10:15:41.451Z,40
2022-12-06T10:16:41.419Z,40
2022-12-06T10:17:41.047Z,36
2022-12-06T10:18:41.139Z,40
2022-12-06T10:19:41.070Z,40
2022-12-06T10:20:44.162Z,40
2022-12-06T10:21:41.098Z,40
2022-12-06T10:22:41.038Z,40
2022-12-06T10:23:41.093Z,44
2022-12-06T10:24:41.053Z,48
2022-12-06T10:25:43.033Z,56
2022-12-06T10:26:41.261Z,56
2022-12-06T10:27:44.132Z,56
2022-12-06T10:28:41.055Z,56
2022-12-06T10:29:41.061Z,56
2022-12-06T10:30:41.098Z,56
2022-12-06T10:31:44.608Z,52
2022-12-06T10:32:41.057Z,48
2022-12-06T10:33:41.056Z,44
2022-12-06T10:34:45.771Z,40
2022-12-06T10:35:41.123Z,36
2022-12-06T10:36:43.964Z,36
2022-12-06T10:37:41.084Z,36
2022-12-06T10:38:41.062Z,32
2022-12-06T10:39:41.110Z,36
2022-12-06T10:40:41.176Z,40
2022-12-06T10:41:41.068Z,48
2022-12-06T10:42:41.074Z,52
2022-12-06T10:43:41.143Z,52
2022-12-06T10:44:41.068Z,56
2022-12-06T10:45:41.149Z,52
2022-12-06T10:46:41.398Z,52
2022-12-06T10:47:44.162Z,48
2022-12-06T10:48:41.100Z,44
2022-12-06T10:49:41.125Z,40
2022-12-06T10:50:41.126Z,44
2022-12-06T10:51:41.101Z,44
2022-12-06T10:52:41.095Z,48
2022-12-06T10:53:41.095Z,48
2022-12-06T10:54:41.102Z,52
2022-12-06T10:55:41.179Z,52
2022-12-06T10:56:41.090Z,52
2022-12-06T10:57:41.118Z,56
2022-12-06T10:58:44.173Z,56
2022-12-06T10:59:41.146Z,64
2022-12-06T11:00:41.376Z,64
2022-12-06T11:01:41.841Z,64
2022-12-06T11:02:41.557Z,60
2022-12-06T11:03:41.108Z,56
2022-12-06T11:04:41.119Z,56
2022-12-06T11:05:41.742Z,56
2022-12-06T11:06:41.095Z,48
2022-12-06T11:07:41.476Z,48
2022-12-06T11:08:41.159Z,52
2022-12-06T11:09:41.149Z,48
2022-12-06T11:10:41.137Z,52
2022-12-06T11:11:41.247Z,48
2022-12-06T11:12:41.148Z,44
2022-12-06T11:13:41.098Z,44
2022-12-06T11:14:41.199Z,44
2022-12-06T11:15:41.154Z,44
2022-12-06T11:16:41.545Z,44
2022-12-06T11:17:41.204Z,44
2022-12-06T11:18:41.136Z,48
2022-12-06T11:19:41.130Z,48
2022-12-06T11:20:41.189Z,52
2022-12-06T11:21:41.129Z,52
2022-12-06T11:22:41.290Z,52
2022-12-06T11:23:41.175Z,52
2022-12-06T11:24:48.368Z,56
2022-12-06T11:25:41.226Z,60
2022-12-06T11:26:41.223Z,60
2022-12-06T11:27:41.192Z,60
2022-12-06T11:28:41.141Z,56
2022-12-06T11:29:41.142Z,56
2022-12-06T11:30:42.781Z,56
2022-12-06T11:31:41.652Z,48
2022-12-06T11:32:41.140Z,48
2022-12-06T11:33:41.153Z,48
2022-12-06T11:34:41.152Z,48
2022-12-06T11:35:41.197Z,48
2022-12-06T11:36:41.166Z,56
2022-12-06T11:37:47.454Z,64
2022-12-06T11:38:41.158Z,68
2022-12-06T11:39:41.240Z,72
2022-12-06T11:40:41.226Z,76
2022-12-06T11:41:43.969Z,76
2022-12-06T11:42:41.156Z,72
2022-12-06T11:43:41.274Z,72
2022-12-06T11:44:44.912Z,72
2022-12-06T11:45:41.224Z,68
2022-12-06T11:46:44.556Z,68
2022-12-06T11:47:41.203Z,68
2022-12-06T11:48:41.180Z,68
2022-12-06T11:49:41.187Z,64
2022-12-06T11:50:41.195Z,64
2022-12-06T11:51:41.172Z,64
2022-12-06T11:52:44.308Z,60
2022-12-06T11:53:41.192Z,60
2022-12-06T11:54:41.195Z,56
2022-12-06T11:55:41.239Z,52
2022-12-06T11:56:41.235Z,52
2022-12-06T11:57:44.404Z,48
2022-12-06T11:58:41.194Z,44
2022-12-06T11:59:41.415Z,44
2022-12-06T12:00:41.229Z,44
2022-12-06T12:01:41.535Z,44
2022-12-06T12:02:41.606Z,44
2022-12-06T12:03:44.501Z,40
2022-12-06T12:04:41.186Z,40
2022-12-06T12:05:41.306Z,40
2022-12-06T12:06:41.223Z,32
2022-12-06T12:07:41.478Z,32
2022-12-06T12:08:44.329Z,36
2022-12-06T12:09:41.232Z,36
2022-12-06T12:10:41.252Z,40
2022-12-06T12:11:41.234Z,40
2022-12-06T12:12:41.200Z,44
2022-12-06T12:13:41.225Z,48
2022-12-06T12:14:49.674Z,44
2022-12-06T12:15:41.252Z,48
2022-12-06T12:16:41.571Z,44
2022-12-06T12:17:41.229Z,44
2022-12-06T12:18:41.320Z,44
2022-12-06T12:19:44.263Z,44
2022-12-06T12:20:41.248Z,40
2022-12-06T12:21:41.242Z,32
2022-12-06T12:22:41.300Z,32
2022-12-06T12:23:41.341Z,32
2022-12-06T12:25:23.008Z,28
2022-12-06T12:25:42.512Z,28
2022-12-06T12:26:41.226Z,32
2022-12-06T12:27:41.250Z,36
2022-12-06T12:28:41.253Z,40
2022-12-06T12:29:41.222Z,40
2022-12-06T12:30:44.069Z,36
2022-12-06T12:31:41.524Z,32
2022-12-06T12:32:41.265Z,32
2022-12-06T12:33:41.251Z,32
2022-12-06T12:34:47.714Z,32
2022-12-06T12:35:41.232Z,32
2022-12-06T12:36:44.311Z,28
2022-12-06T12:37:41.241Z,28
2022-12-06T12:38:41.232Z,32
2022-12-06T12:39:41.289Z,28
2022-12-06T12:40:41.272Z,28
2022-12-06T12:41:44.398Z,32
2022-12-06T12:42:41.260Z,32
2022-12-06T12:43:41.318Z,36
2022-12-06T12:44:45.963Z,36
2022-12-06T12:45:41.506Z,36
2022-12-06T12:46:41.409Z,36
2022-12-06T12:47:44.263Z,36
2022-12-06T12:48:41.260Z,36
2022-12-06T12:49:41.451Z,36
2022-12-06T12:50:41.327Z,36
2022-12-06T12:51:48.724Z,28
2022-12-06T12:52:44.803Z,32
2022-12-06T12:53:41.553Z,32
2022-12-06T12:54:41.293Z,32
2022-12-06T12:55:41.299Z,36
2022-12-06T12:56:41.310Z,40
2022-12-06T12:57:41.369Z,44
2022-12-06T12:58:46.278Z,40
2022-12-06T12:59:41.316Z,40
2022-12-06T13:00:41.300Z,40
2022-12-06T13:01:41.848Z,36
2022-12-06T13:02:41.586Z,36
2022-12-06T13:03:58.089Z,36
2022-12-06T13:04:41.304Z,36
2022-12-06T13:05:50.632Z,32
2022-12-06T13:06:41.328Z,36
2022-12-06T13:07:41.536Z,32
2022-12-06T13:08:42.328Z,32
2022-12-06T13:09:47.111Z,40
2022-12-06T13:10:43.757Z,40
2022-12-06T13:11:41.328Z,36
2022-12-06T13:12:41.294Z,40
2022-12-06T13:13:41.314Z,36
2022-12-06T13:14:41.476Z,40
2022-12-06T13:15:42.390Z,44
2022-12-06T13:16:41.586Z,48
2022-12-06T13:17:41.319Z,56
2022-12-06T13:18:41.783Z,56
2022-12-06T13:19:41.321Z,56
2022-12-06T13:20:41.305Z,60
2022-12-06T13:21:41.384Z,64
2022-12-06T13:22:41.338Z,64
2022-12-06T13:23:41.326Z,64
2022-12-06T13:24:41.316Z,64
2022-12-06T13:25:44.133Z,64
2022-12-06T13:26:41.375Z,64
2022-12-06T13:27:41.321Z,64
2022-12-06T13:28:41.337Z,68
2022-12-06T13:29:41.335Z,68
2022-12-06T13:30:41.678Z,68
2022-12-06T13:31:41.540Z,68
2022-12-06T13:32:41.334Z,68
2022-12-06T13:33:41.332Z,64
2022-12-06T13:34:44.856Z,60
2022-12-06T13:35:41.359Z,64
2022-12-06T13:36:41.427Z,64
2022-12-06T13:37:41.396Z,64
2022-12-06T13:38:41.375Z,68
2022-12-06T13:39:41.178Z,64
2022-12-06T13:40:41.368Z,60
2022-12-06T13:41:41.378Z,64
2022-12-06T13:42:41.359Z,60
2022-12-06T13:43:46.723Z,64
2022-12-06T13:44:41.342Z,60
2022-12-06T13:45:41.751Z,56
2022-12-06T13:46:41.740Z,56
2022-12-06T13:47:41.360Z,52
2022-12-06T13:48:41.375Z,52
2022-12-06T13:49:53.394Z,48
2022-12-06T13:50:41.350Z,44
2022-12-06T13:51:41.392Z,44
2022-12-06T13:52:41.352Z,40
2022-12-06T13:53:41.384Z,40
2022-12-06T13:54:41.395Z,40
2022-12-06T13:55:41.351Z,36
2022-12-06T13:56:41.442Z,40
2022-12-06T13:57:44.508Z,36
2022-12-06T13:58:41.575Z,36
2022-12-06T13:59:41.400Z,32
2022-12-06T14:00:41.824Z,28
2022-12-06T14:01:47.118Z,24
2022-12-06T14:02:41.621Z,20
2022-12-06T14:03:41.413Z,16
2022-12-06T14:04:41.130Z,20
2022-12-06T14:05:41.459Z,16
2022-12-06T14:06:41.405Z,12
2022-12-06T14:07:41.709Z,16
2022-12-06T14:08:44.180Z,12
2022-12-06T14:09:41.423Z,16
2022-12-06T14:10:44.481Z,12
2022-12-06T14:11:46.866Z,12
2022-12-06T14:12:41.423Z,12
2022-12-06T14:13:44.469Z,8
2022-12-06T14:14:41.431Z,12
2022-12-06T14:15:41.390Z,8
2022-12-06T14:16:41.728Z,8
2022-12-06T14:18:15.777Z,8
2022-12-06T14:18:41.441Z,8
2022-12-06T14:19:44.190Z,8
2022-12-06T14:20:41.410Z,8
2022-12-06T14:21:41.472Z,8
2022-12-06T14:22:41.451Z,8
2022-12-06T14:23:48.611Z,8
2022-12-06T14:24:44.473Z,8
2022-12-06T14:25:41.413Z,8
2022-12-06T14:26:41.457Z,8
2022-12-06T14:27:41.453Z,8
2022-12-06T14:28:41.492Z,8
2022-12-06T14:29:41.435Z,8
2022-12-06T14:30:44.726Z,8
2022-12-06T14:31:41.808Z,8
2022-12-06T14:32:41.453Z,8
2022-12-06T14:33:41.444Z,4